sensor_id;sensor_type;location;lat;lon;timestamp;pressure;altitude;pressure_sealevel;temperature;humidity
47530;BME280;33272;51.922;7.730;2023-02-11T00:00:07;144235.84;;;7.00;100.00
47530;BME280;33272;51.922;7.730;2023-02-11T00:02:34;144237.16;;;7.00;100.00
47530;BME280;33272;51.922;7.730;2023-02-11T00:05:00;144247.25;;;7.04;100.00
47530;BME280;33272;51.922;7.730;2023-02-11T00:07:28;144244.75;;;7.03;100.00
47530;BME280;33272;51.922;7.730;2023-02-11T00:09:54;144253.59;;;7.07;100.00
47530;BME280;33272;51.922;7.730;2023-02-11T00:12:21;144223.25;;;6.94;100.00
47530;BME280;33272;51.922;7.730;2023-02-11T00:19:52;144237.16;;;7.00;100.00
47530;BME280;33272;51.922;7.730;2023-02-11T00:22:19;144223.25;;;6.94;100.00
47530;BME280;33272;51.922;7.730;2023-02-11T00:24:45;144248.50;;;7.05;100.00
47530;BME280;33272;51.922;7.730;2023-02-11T00:27:11;144237.16;;;7.00;100.00
47530;BME280;33272;51.922;7.730;2023-02-11T00:29:38;144261.16;;;7.10;100.00
47530;BME280;33272;51.922;7.730;2023-02-11T00:32:05;144267.44;;;7.12;100.00
47530;BME280;33272;51.922;7.730;2023-02-11T00:34:31;144273.78;;;7.15;100.00
47530;BME280;33272;51.922;7.730;2023-02-11T00:45:54;144232.09;;;6.98;100.00
47530;BME280;33272;51.922;7.730;2023-02-11T00:48:20;144216.91;;;6.92;100.00
47530;BME280;33272;51.922;7.730;2023-02-11T00:50:46;144225.75;;;6.95;100.00
47530;BME280;33272;51.922;7.730;2023-02-11T00:53:12;144235.84;;;7.00;100.00
47530;BME280;33272;51.922;7.730;2023-02-11T00:55:39;144218.19;;;6.92;100.00
47530;BME280;33272;51.922;7.730;2023-02-11T00:58:05;144214.41;;;6.91;100.00
47530;BME280;33272;51.922;7.730;2023-02-11T01:00:31;144246.00;;;7.04;100.00
47530;BME280;33272;51.922;7.730;2023-02-11T01:03:00;144225.75;;;6.95;100.00
47530;BME280;33272;51.922;7.730;2023-02-11T01:05:27;144220.69;;;6.93;100.00
47530;BME280;33272;51.922;7.730;2023-02-11T01:07:54;144232.09;;;6.98;100.00
47530;BME280;33272;51.922;7.730;2023-02-11T01:10:21;144242.19;;;7.02;100.00
47530;BME280;33272;51.922;7.730;2023-02-11T01:12:48;144243.44;;;7.03;100.00
47530;BME280;33272;51.922;7.730;2023-02-11T01:15:17;144249.75;;;7.05;100.00
47530;BME280;33272;51.922;7.730;2023-02-11T01:17:44;144248.50;;;7.05;100.00
47530;BME280;33272;51.922;7.730;2023-02-11T01:20:16;144251.00;;;7.06;100.00
47530;BME280;33272;51.922;7.730;2023-02-11T01:22:44;144240.94;;;7.02;100.00
47530;BME280;33272;51.922;7.730;2023-02-11T01:25:11;144232.09;;;6.98;100.00
47530;BME280;33272;51.922;7.730;2023-02-11T01:27:38;144247.25;;;7.04;100.00
47530;BME280;33272;51.922;7.730;2023-02-11T01:30:09;144223.25;;;6.94;100.00
47530;BME280;33272;51.922;7.730;2023-02-11T01:32:36;144256.09;;;7.08;100.00
47530;BME280;33272;51.922;7.730;2023-02-11T01:35:04;144254.84;;;7.07;100.00
47530;BME280;33272;51.922;7.730;2023-02-11T01:37:33;144240.94;;;7.02;100.00
47530;BME280;33272;51.922;7.730;2023-02-11T01:40:00;144266.19;;;7.12;100.00
47530;BME280;33272;51.922;7.730;2023-02-11T01:42:28;144253.59;;;7.07;100.00
47530;BME280;33272;51.922;7.730;2023-02-11T01:44:57;144219.44;;;6.93;100.00
47530;BME280;33272;51.922;7.730;2023-02-11T01:47:24;144204.28;;;6.87;100.00
47530;BME280;33272;51.922;7.730;2023-02-11T01:49:55;144216.91;;;6.92;100.00
47530;BME280;33272;51.922;7.730;2023-02-11T01:52:28;144180.28;;;6.77;100.00
47530;BME280;33272;51.922;7.730;2023-02-11T01:55:04;144200.50;;;6.85;100.00
47530;BME280;33272;51.922;7.730;2023-02-11T01:57:54;144232.09;;;6.98;100.00
47530;BME280;33272;51.922;7.730;2023-02-11T02:00:26;144242.19;;;7.02;100.00
47530;BME280;33272;51.922;7.730;2023-02-11T02:03:01;144243.44;;;7.03;100.00
47530;BME280;33272;51.922;7.730;2023-02-11T02:05:37;144266.19;;;7.12;100.00
47530;BME280;33272;51.922;7.730;2023-02-11T02:08:10;144247.25;;;7.04;100.00
47530;BME280;33272;51.922;7.730;2023-02-11T02:10:46;144209.34;;;6.89;100.00
47530;BME280;33272;51.922;7.730;2023-02-11T02:13:14;144240.94;;;7.02;100.00
47530;BME280;33272;51.922;7.730;2023-02-11T02:15:47;144240.94;;;7.02;100.00
47530;BME280;33272;51.922;7.730;2023-02-11T02:18:31;144216.91;;;6.92;100.00
47530;BME280;33272;51.922;7.730;2023-02-11T02:21:47;144239.66;;;7.01;100.00
47530;BME280;33272;51.922;7.730;2023-02-11T02:24:57;144233.34;;;6.99;100.00
47530;BME280;33272;51.922;7.730;2023-02-11T02:27:37;144224.50;;;6.95;100.00
47530;BME280;33272;51.922;7.730;2023-02-11T02:30:49;144220.69;;;6.93;100.00
47530;BME280;33272;51.922;7.730;2023-02-11T02:33:36;144244.75;;;7.03;100.00
47530;BME280;33272;51.922;7.730;2023-02-11T02:36:13;144240.94;;;7.02;100.00
47530;BME280;33272;51.922;7.730;2023-02-11T02:38:49;144237.16;;;7.00;100.00
47530;BME280;33272;51.922;7.730;2023-02-11T02:41:22;144239.66;;;7.01;100.00
47530;BME280;33272;51.922;7.730;2023-02-11T02:43:51;144277.59;;;7.16;100.00
47530;BME280;33272;51.922;7.730;2023-02-11T02:46:20;144248.50;;;7.05;100.00
47530;BME280;33272;51.922;7.730;2023-02-11T02:48:51;144238.41;;;7.01;100.00
47530;BME280;33272;51.922;7.730;2023-02-11T02:55:03;144248.50;;;7.05;100.00
47530;BME280;33272;51.922;7.730;2023-02-11T02:57:44;144259.91;;;7.09;100.00
47530;BME280;33272;51.922;7.730;2023-02-11T03:00:23;144249.75;;;7.05;100.00
47530;BME280;33272;51.922;7.730;2023-02-11T03:03:11;144253.59;;;7.07;100.00
47530;BME280;33272;51.922;7.730;2023-02-11T03:05:51;144249.75;;;7.05;100.00
47530;BME280;33272;51.922;7.730;2023-02-11T03:08:27;144246.00;;;7.04;100.00
47530;BME280;33272;51.922;7.730;2023-02-11T03:10:56;144263.66;;;7.11;100.00
47530;BME280;33272;51.922;7.730;2023-02-11T03:13:29;144244.75;;;7.03;100.00
47530;BME280;33272;51.922;7.730;2023-02-11T03:16:02;144247.25;;;7.04;100.00
47530;BME280;33272;51.922;7.730;2023-02-11T03:18:35;144232.09;;;6.98;100.00
47530;BME280;33272;51.922;7.730;2023-02-11T03:21:05;144244.75;;;7.03;100.00
47530;BME280;33272;51.922;7.730;2023-02-11T03:23:38;144227.03;;;6.96;100.00
47530;BME280;33272;51.922;7.730;2023-02-11T03:26:11;144229.56;;;6.97;100.00
47530;BME280;33272;51.922;7.730;2023-02-11T03:28:46;144210.59;;;6.89;100.00
47530;BME280;33272;51.922;7.730;2023-02-11T03:31:20;144229.56;;;6.97;100.00
47530;BME280;33272;51.922;7.730;2023-02-11T03:33:58;144235.84;;;7.00;100.00
47530;BME280;33272;51.922;7.730;2023-02-11T03:36:37;144220.69;;;6.93;100.00
47530;BME280;33272;51.922;7.730;2023-02-11T03:39:12;144209.34;;;6.89;100.00
47530;BME280;33272;51.922;7.730;2023-02-11T03:41:41;144222.00;;;6.94;100.00
47530;BME280;33272;51.922;7.730;2023-02-11T03:44:12;144234.59;;;6.99;100.00
47530;BME280;33272;51.922;7.730;2023-02-11T03:46:45;144215.66;;;6.91;100.00
47530;BME280;33272;51.922;7.730;2023-02-11T03:49:18;144213.16;;;6.90;100.00
47530;BME280;33272;51.922;7.730;2023-02-11T03:51:49;144201.75;;;6.86;100.00
47530;BME280;33272;51.922;7.730;2023-02-11T03:54:26;144210.59;;;6.89;100.00
47530;BME280;33272;51.922;7.730;2023-02-11T03:56:57;144189.09;;;6.81;100.00
47530;BME280;33272;51.922;7.730;2023-02-11T03:59:25;144210.59;;;6.89;100.00
47530;BME280;33272;51.922;7.730;2023-02-11T04:01:52;144201.75;;;6.86;100.00
47530;BME280;33272;51.922;7.730;2023-02-11T04:04:20;144210.59;;;6.89;100.00
47530;BME280;33272;51.922;7.730;2023-02-11T04:06:48;144205.56;;;6.87;100.00
47530;BME280;33272;51.922;7.730;2023-02-11T04:09:15;144208.09;;;6.88;100.00
47530;BME280;33272;51.922;7.730;2023-02-11T04:11:42;144166.41;;;6.71;100.00
47530;BME280;33272;51.922;7.730;2023-02-11T04:14:09;144191.66;;;6.82;100.00
47530;BME280;33272;51.922;7.730;2023-02-11T04:16:36;144196.69;;;6.84;100.00
47530;BME280;33272;51.922;7.730;2023-02-11T04:19:03;144199.25;;;6.85;100.00
47530;BME280;33272;51.922;7.730;2023-02-11T04:21:30;144190.41;;;6.81;100.00
47530;BME280;33272;51.922;7.730;2023-02-11T04:23:59;144196.69;;;6.84;100.00
47530;BME280;33272;51.922;7.730;2023-02-11T04:26:26;144205.56;;;6.87;100.00
47530;BME280;33272;51.922;7.730;2023-02-11T04:28:53;144201.75;;;6.86;100.00
47530;BME280;33272;51.922;7.730;2023-02-11T04:31:20;144208.09;;;6.88;100.00
47530;BME280;33272;51.922;7.730;2023-02-11T04:33:47;144205.56;;;6.87;100.00
47530;BME280;33272;51.922;7.730;2023-02-11T04:36:14;144208.09;;;6.88;100.00
47530;BME280;33272;51.922;7.730;2023-02-11T04:38:41;144185.34;;;6.79;100.00
47530;BME280;33272;51.922;7.730;2023-02-11T04:41:09;144184.09;;;6.79;100.00
47530;BME280;33272;51.922;7.730;2023-02-11T04:43:36;144170.19;;;6.73;100.00
47530;BME280;33272;51.922;7.730;2023-02-11T04:46:03;144175.25;;;6.75;100.00
47530;BME280;33272;51.922;7.730;2023-02-11T04:48:30;144157.53;;;6.68;100.00
47530;BME280;33272;51.922;7.730;2023-02-11T04:50:57;144182.84;;;6.78;100.00
47530;BME280;33272;51.922;7.730;2023-02-11T04:53:24;144170.19;;;6.73;100.00
47530;BME280;33272;51.922;7.730;2023-02-11T04:55:51;144163.84;;;6.70;100.00
47530;BME280;33272;51.922;7.730;2023-02-11T04:58:20;144185.34;;;6.79;100.00
47530;BME280;33272;51.922;7.730;2023-02-11T05:00:47;144191.66;;;6.82;100.00
47530;BME280;33272;51.922;7.730;2023-02-11T05:03:15;144163.84;;;6.70;100.00
47530;BME280;33272;51.922;7.730;2023-02-11T05:05:42;144133.53;;;6.58;100.00
47530;BME280;33272;51.922;7.730;2023-02-11T05:08:10;144156.28;;;6.67;100.00
47530;BME280;33272;51.922;7.730;2023-02-11T05:10:37;144179.00;;;6.77;100.00
47530;BME280;33272;51.922;7.730;2023-02-11T05:13:04;144190.41;;;6.81;100.00
47530;BME280;33272;51.922;7.730;2023-02-11T05:15:33;144175.25;;;6.75;100.00
47530;BME280;33272;51.922;7.730;2023-02-11T05:18:00;144171.44;;;6.73;100.00
47530;BME280;33272;51.922;7.730;2023-02-11T05:20:26;144189.09;;;6.81;100.00
47530;BME280;33272;51.922;7.730;2023-02-11T05:22:54;144155.03;;;6.67;100.00
47530;BME280;33272;51.922;7.730;2023-02-11T05:25:21;144181.53;;;6.78;100.00
47530;BME280;33272;51.922;7.730;2023-02-11T05:27:48;144182.84;;;6.78;100.00
47530;BME280;33272;51.922;7.730;2023-02-11T05:30:15;144186.59;;;6.80;100.00
47530;BME280;33272;51.922;7.730;2023-02-11T05:32:43;144179.00;;;6.77;100.00
47530;BME280;33272;51.922;7.730;2023-02-11T05:35:10;144163.84;;;6.70;100.00
47530;BME280;33272;51.922;7.730;2023-02-11T05:37:37;144156.28;;;6.67;100.00
47530;BME280;33272;51.922;7.730;2023-02-11T05:40:05;144160.09;;;6.69;100.00
47530;BME280;33272;51.922;7.730;2023-02-11T05:42:32;144170.19;;;6.73;100.00
47530;BME280;33272;51.922;7.730;2023-02-11T05:44:59;144168.91;;;6.72;100.00
47530;BME280;33272;51.922;7.730;2023-02-11T05:47:26;144160.09;;;6.69;100.00
47530;BME280;33272;51.922;7.730;2023-02-11T05:49:55;144191.66;;;6.82;100.00
47530;BME280;33272;51.922;7.730;2023-02-11T05:52:22;144192.91;;;6.82;100.00
47530;BME280;33272;51.922;7.730;2023-02-11T05:54:50;144180.28;;;6.77;100.00
47530;BME280;33272;51.922;7.730;2023-02-11T05:57:17;144181.53;;;6.78;100.00
47530;BME280;33272;51.922;7.730;2023-02-11T05:59:44;144167.66;;;6.72;100.00
47530;BME280;33272;51.922;7.730;2023-02-11T06:02:11;144163.84;;;6.70;100.00
47530;BME280;33272;51.922;7.730;2023-02-11T06:04:38;144148.69;;;6.64;100.00
47530;BME280;33272;51.922;7.730;2023-02-11T06:07:06;144161.34;;;6.69;100.00
47530;BME280;33272;51.922;7.730;2023-02-11T06:09:33;144166.41;;;6.71;100.00
47530;BME280;33272;51.922;7.730;2023-02-11T06:12:00;144157.53;;;6.68;100.00
47530;BME280;33272;51.922;7.730;2023-02-11T06:14:27;144172.69;;;6.74;100.00
47530;BME280;33272;51.922;7.730;2023-02-11T06:16:54;144179.00;;;6.77;100.00
47530;BME280;33272;51.922;7.730;2023-02-11T06:19:21;144157.53;;;6.68;100.00
47530;BME280;33272;51.922;7.730;2023-02-11T06:21:48;144155.03;;;6.67;100.00
47530;BME280;33272;51.922;7.730;2023-02-11T06:24:16;144153.75;;;6.66;100.00
47530;BME280;33272;51.922;7.730;2023-02-11T06:26:44;144168.91;;;6.72;100.00
47530;BME280;33272;51.922;7.730;2023-02-11T06:29:11;144165.09;;;6.71;100.00
47530;BME280;33272;51.922;7.730;2023-02-11T06:31:39;144132.28;;;6.58;100.00
47530;BME280;33272;51.922;7.730;2023-02-11T06:34:06;144158.84;;;6.68;100.00
47530;BME280;33272;51.922;7.730;2023-02-11T06:36:33;144151.25;;;6.65;100.00
47530;BME280;33272;51.922;7.730;2023-02-11T06:39:00;144129.75;;;6.57;100.00
47530;BME280;33272;51.922;7.730;2023-02-11T06:41:29;144165.09;;;6.71;100.00
47530;BME280;33272;51.922;7.730;2023-02-11T06:43:56;144129.75;;;6.57;100.00
47530;BME280;33272;51.922;7.730;2023-02-11T06:46:23;144148.69;;;6.64;100.00
47530;BME280;33272;51.922;7.730;2023-02-11T06:48:50;144136.09;;;6.59;100.00
47530;BME280;33272;51.922;7.730;2023-02-11T06:51:17;144153.75;;;6.66;100.00
47530;BME280;33272;51.922;7.730;2023-02-11T06:53:46;144128.50;;;6.56;100.00
47530;BME280;33272;51.922;7.730;2023-02-11T06:56:16;144125.94;;;6.55;100.00
47530;BME280;33272;51.922;7.730;2023-02-11T06:58:45;144128.50;;;6.56;100.00
47530;BME280;33272;51.922;7.730;2023-02-11T07:01:14;144141.09;;;6.61;100.00
47530;BME280;33272;51.922;7.730;2023-02-11T07:03:44;144138.59;;;6.60;100.00
47530;BME280;33272;51.922;7.730;2023-02-11T07:06:13;144137.34;;;6.60;100.00
47530;BME280;33272;51.922;7.730;2023-02-11T07:08:41;144163.84;;;6.70;100.00
47530;BME280;33272;51.922;7.730;2023-02-11T07:11:13;144143.66;;;6.62;100.00
47530;BME280;33272;51.922;7.730;2023-02-11T07:13:40;144137.34;;;6.60;100.00
47530;BME280;33272;51.922;7.730;2023-02-11T07:16:13;144125.94;;;6.55;100.00
47530;BME280;33272;51.922;7.730;2023-02-11T07:18:40;144171.44;;;6.73;100.00
47530;BME280;33272;51.922;7.730;2023-02-11T07:21:09;144166.41;;;6.71;100.00
47530;BME280;33272;51.922;7.730;2023-02-11T07:23:36;144153.75;;;6.66;100.00
47530;BME280;33272;51.922;7.730;2023-02-11T07:26:05;144179.00;;;6.77;100.00
47530;BME280;33272;51.922;7.730;2023-02-11T07:28:33;144167.66;;;6.72;100.00
47530;BME280;33272;51.922;7.730;2023-02-11T07:31:06;144168.91;;;6.72;100.00
47530;BME280;33272;51.922;7.730;2023-02-11T07:33:35;144177.75;;;6.76;100.00
47530;BME280;33272;51.922;7.730;2023-02-11T07:36:04;144179.00;;;6.77;100.00
47530;BME280;33272;51.922;7.730;2023-02-11T07:38:33;144204.28;;;6.87;100.00
47530;BME280;33272;51.922;7.730;2023-02-11T07:41:01;144192.91;;;6.82;100.00
47530;BME280;33272;51.922;7.730;2023-02-11T07:43:29;144170.19;;;6.73;100.00
47530;BME280;33272;51.922;7.730;2023-02-11T07:45:57;144168.91;;;6.72;100.00
47530;BME280;33272;51.922;7.730;2023-02-11T07:48:24;144182.84;;;6.78;100.00
47530;BME280;33272;51.922;7.730;2023-02-11T07:50:52;144186.59;;;6.80;100.00
47530;BME280;33272;51.922;7.730;2023-02-11T07:53:19;144196.69;;;6.84;100.00
47530;BME280;33272;51.922;7.730;2023-02-11T07:55:46;144204.28;;;6.87;100.00
47530;BME280;33272;51.922;7.730;2023-02-11T07:58:13;144211.84;;;6.90;100.00
47530;BME280;33272;51.922;7.730;2023-02-11T08:00:40;144199.25;;;6.85;100.00
47530;BME280;33272;51.922;7.730;2023-02-11T08:03:07;144215.66;;;6.91;100.00
47530;BME280;33272;51.922;7.730;2023-02-11T08:05:37;144209.34;;;6.89;100.00
47530;BME280;33272;51.922;7.730;2023-02-11T08:08:05;144237.16;;;7.00;100.00
47530;BME280;33272;51.922;7.730;2023-02-11T08:10:32;144229.56;;;6.97;100.00
47530;BME280;33272;51.922;7.730;2023-02-11T08:12:59;144235.84;;;7.00;100.00
47530;BME280;33272;51.922;7.730;2023-02-11T08:15:26;144220.69;;;6.93;100.00
47530;BME280;33272;51.922;7.730;2023-02-11T08:17:53;144220.69;;;6.93;100.00
47530;BME280;33272;51.922;7.730;2023-02-11T08:20:20;144222.00;;;6.94;100.00
47530;BME280;33272;51.922;7.730;2023-02-11T08:22:47;144230.84;;;6.97;100.00
47530;BME280;33272;51.922;7.730;2023-02-11T08:25:15;144258.59;;;7.09;100.00
47530;BME280;33272;51.922;7.730;2023-02-11T08:27:42;144261.16;;;7.10;100.00
47530;BME280;33272;51.922;7.730;2023-02-11T08:30:11;144263.66;;;7.11;100.00
47530;BME280;33272;51.922;7.730;2023-02-11T08:32:38;144225.75;;;6.95;100.00
47530;BME280;33272;51.922;7.730;2023-02-11T08:35:06;144272.50;;;7.14;100.00
47530;BME280;33272;51.922;7.730;2023-02-11T08:37:33;144288.94;;;7.21;100.00
47530;BME280;33272;51.922;7.730;2023-02-11T08:40:00;144297.78;;;7.25;100.00
47530;BME280;33272;51.922;7.730;2023-02-11T08:42:29;144310.44;;;7.30;100.00
47530;BME280;33272;51.922;7.730;2023-02-11T08:44:56;144306.66;;;7.28;100.00
47530;BME280;33272;51.922;7.730;2023-02-11T08:47:22;144311.69;;;7.30;100.00
47530;BME280;33272;51.922;7.730;2023-02-11T08:49:49;144319.28;;;7.33;100.00
47530;BME280;33272;51.922;7.730;2023-02-11T08:52:16;144311.69;;;7.30;100.00
47530;BME280;33272;51.922;7.730;2023-02-11T08:54:43;144292.75;;;7.23;100.00
47530;BME280;33272;51.922;7.730;2023-02-11T08:57:10;144276.34;;;7.16;100.00
47530;BME280;33272;51.922;7.730;2023-02-11T08:59:39;144316.75;;;7.32;100.00
47530;BME280;33272;51.922;7.730;2023-02-11T09:02:09;144305.34;;;7.28;100.00
47530;BME280;33272;51.922;7.730;2023-02-11T09:04:37;144344.53;;;7.43;100.00
47530;BME280;33272;51.922;7.730;2023-02-11T09:07:04;144323.09;;;7.35;100.00
47530;BME280;33272;51.922;7.730;2023-02-11T09:09:31;144314.19;;;7.31;100.00
47530;BME280;33272;51.922;7.730;2023-02-11T09:11:58;144360.97;;;7.50;100.00
47530;BME280;33272;51.922;7.730;2023-02-11T09:14:26;144376.13;;;7.56;100.00
47530;BME280;33272;51.922;7.730;2023-02-11T09:16:54;144336.97;;;7.40;100.00
47530;BME280;33272;51.922;7.730;2023-02-11T09:19:22;144343.28;;;7.43;100.00
47530;BME280;33272;51.922;7.730;2023-02-11T09:21:49;144373.63;;;7.55;100.00
47530;BME280;33272;51.922;7.730;2023-02-11T09:24:16;144391.31;;;7.62;100.00
47530;BME280;33272;51.922;7.730;2023-02-11T09:26:43;144382.47;;;7.59;100.00
47530;BME280;33272;51.922;7.730;2023-02-11T09:29:11;144391.31;;;7.62;100.00
47530;BME280;33272;51.922;7.730;2023-02-11T09:31:38;144362.28;;;7.51;100.00
47530;BME280;33272;51.922;7.730;2023-02-11T09:34:07;144383.72;;;7.59;100.00
47530;BME280;33272;51.922;7.730;2023-02-11T09:36:37;144376.13;;;7.56;100.00
47530;BME280;33272;51.922;7.730;2023-02-11T09:39:08;144360.97;;;7.50;100.00
47530;BME280;33272;51.922;7.730;2023-02-11T09:41:58;144345.84;;;7.44;100.00
47530;BME280;33272;51.922;7.730;2023-02-11T09:44:33;144349.63;;;7.46;100.00
47530;BME280;33272;51.922;7.730;2023-02-11T09:47:04;144381.22;;;7.58;100.00
47530;BME280;33272;51.922;7.730;2023-02-11T09:49:38;144358.47;;;7.49;100.00
47530;BME280;33272;51.922;7.730;2023-02-11T09:52:16;144391.31;;;7.62;100.00
47530;BME280;33272;51.922;7.730;2023-02-11T09:54:53;144415.34;;;7.72;100.00
47530;BME280;33272;51.922;7.730;2023-02-11T09:57:20;144440.66;;;7.82;100.00
47530;BME280;33272;51.922;7.730;2023-02-11T09:59:48;144441.91;;;7.83;100.00
47530;BME280;33272;51.922;7.730;2023-02-11T10:02:22;144429.25;;;7.78;100.00
47530;BME280;33272;51.922;7.730;2023-02-11T10:05:15;144436.84;;;7.81;100.00
47530;BME280;33272;51.922;7.730;2023-02-11T10:07:50;144448.25;;;7.85;100.00
47530;BME280;33272;51.922;7.730;2023-02-11T10:10:35;144434.31;;;7.80;100.00
47530;BME280;33272;51.922;7.730;2023-02-11T10:16:17;144431.81;;;7.79;100.00
47530;BME280;33272;51.922;7.730;2023-02-11T10:19:09;144397.66;;;7.65;100.00
47530;BME280;33272;51.922;7.730;2023-02-11T10:21:50;144434.31;;;7.80;100.00
47530;BME280;33272;51.922;7.730;2023-02-11T10:24:24;144448.25;;;7.85;100.00
47530;BME280;33272;51.922;7.730;2023-02-11T10:26:53;144455.84;;;7.88;100.00
47530;BME280;33272;51.922;7.730;2023-02-11T10:29:33;144443.16;;;7.83;100.00
47530;BME280;33272;51.922;7.730;2023-02-11T10:32:05;144487.44;;;8.01;100.00
47530;BME280;33272;51.922;7.730;2023-02-11T10:34:40;144429.25;;;7.78;100.00
47530;BME280;33272;51.922;7.730;2023-02-11T10:37:12;144463.41;;;7.92;100.00
47530;BME280;33272;51.922;7.730;2023-02-11T10:39:40;144500.06;;;8.06;100.00
47530;BME280;33272;51.922;7.730;2023-02-11T10:42:11;144477.28;;;7.97;100.00
47530;BME280;33272;51.922;7.730;2023-02-11T10:44:41;144495.03;;;8.04;100.00
47530;BME280;33272;51.922;7.730;2023-02-11T10:47:14;144506.41;;;8.09;100.00
47530;BME280;33272;51.922;7.730;2023-02-11T10:49:45;144520.31;;;8.15;100.00
47530;BME280;33272;51.922;7.730;2023-02-11T10:52:20;144562.03;;;8.31;100.00
47530;BME280;33272;51.922;7.730;2023-02-11T10:55:05;144550.69;;;8.27;100.00
47530;BME280;33272;51.922;7.730;2023-02-11T10:57:48;144560.78;;;8.31;100.00
47530;BME280;33272;51.922;7.730;2023-02-11T11:00:35;144519.06;;;8.14;100.00
47530;BME280;33272;51.922;7.730;2023-02-11T11:03:06;144530.44;;;8.19;100.00
47530;BME280;33272;51.922;7.730;2023-02-11T11:05:47;144535.50;;;8.21;100.00
47530;BME280;33272;51.922;7.730;2023-02-11T11:08:17;144565.88;;;8.33;100.00
47530;BME280;33272;51.922;7.730;2023-02-11T11:10:47;144572.19;;;8.35;100.00
47530;BME280;33272;51.922;7.730;2023-02-11T11:13:32;144578.53;;;8.38;100.00
47530;BME280;33272;51.922;7.730;2023-02-11T11:16:19;144592.47;;;8.44;100.00
47530;BME280;33272;51.922;7.730;2023-02-11T11:18:48;144562.03;;;8.31;100.00
47530;BME280;33272;51.922;7.730;2023-02-11T11:21:20;144555.72;;;8.29;100.00
47530;BME280;33272;51.922;7.730;2023-02-11T11:24:04;144577.22;;;8.38;100.00
47530;BME280;33272;51.922;7.730;2023-02-11T11:26:42;144602.56;;;8.48;100.00
47530;BME280;33272;51.922;7.730;2023-02-11T11:29:15;144544.34;;;8.24;100.00
47530;BME280;33272;51.922;7.730;2023-02-11T11:31:50;144546.84;;;8.25;100.00
47530;BME280;33272;51.922;7.730;2023-02-11T11:34:25;144600.06;;;8.47;100.00
47530;BME280;33272;51.922;7.730;2023-02-11T11:36:55;144588.69;;;8.42;100.00
47530;BME280;33272;51.922;7.730;2023-02-11T11:39:26;144575.97;;;8.37;100.00
47530;BME280;33272;51.922;7.730;2023-02-11T11:41:57;144579.84;;;8.39;100.00
47530;BME280;33272;51.922;7.730;2023-02-11T11:44:30;144591.19;;;8.43;100.00
47530;BME280;33272;51.922;7.730;2023-02-11T11:47:28;144608.91;;;8.50;100.00
47530;BME280;33272;51.922;7.730;2023-02-11T11:50:26;144603.88;;;8.48;100.00
47530;BME280;33272;51.922;7.730;2023-02-11T11:53:00;144612.72;;;8.52;100.00
47530;BME280;33272;51.922;7.730;2023-02-11T11:55:36;144634.19;;;8.61;100.00
47530;BME280;33272;51.922;7.730;2023-02-11T11:58:12;144631.69;;;8.59;100.00
47530;BME280;33272;51.922;7.730;2023-02-11T12:00:53;144629.16;;;8.58;100.00
47530;BME280;33272;51.922;7.730;2023-02-11T12:04:19;144617.75;;;8.54;100.00
47530;BME280;33272;51.922;7.730;2023-02-11T12:07:01;144612.72;;;8.52;100.00
47530;BME280;33272;51.922;7.730;2023-02-11T12:09:39;144616.50;;;8.53;100.00
47530;BME280;33272;51.922;7.730;2023-02-11T12:12:32;144631.69;;;8.59;100.00
47530;BME280;33272;51.922;7.730;2023-02-11T12:15:13;144663.31;;;8.72;100.00
47530;BME280;33272;51.922;7.730;2023-02-11T12:18:00;144626.66;;;8.57;100.00
47530;BME280;33272;51.922;7.730;2023-02-11T12:20:42;144660.78;;;8.71;100.00
47530;BME280;33272;51.922;7.730;2023-02-11T12:23:30;144673.47;;;8.76;100.00
47530;BME280;33272;51.922;7.730;2023-02-11T12:26:05;144717.72;;;8.94;100.00
47530;BME280;33272;51.922;7.730;2023-02-11T12:28:50;144721.56;;;8.96;100.00
47530;BME280;33272;51.922;7.730;2023-02-11T12:31:43;144693.69;;;8.85;100.00
47530;BME280;33272;51.922;7.730;2023-02-11T12:34:29;144674.72;;;8.77;100.00
47530;BME280;33272;51.922;7.730;2023-02-11T12:37:08;144673.47;;;8.76;100.00
47530;BME280;33272;51.922;7.730;2023-02-11T12:39:43;144698.78;;;8.87;100.00
47530;BME280;33272;51.922;7.730;2023-02-11T12:42:41;144727.84;;;8.98;100.00
47530;BME280;33272;51.922;7.730;2023-02-11T12:45:45;144711.41;;;8.92;100.00
47530;BME280;33272;51.922;7.730;2023-02-11T12:48:35;144746.84;;;9.06;100.00
47530;BME280;33272;51.922;7.730;2023-02-11T12:51:13;144741.78;;;9.04;100.00
47530;BME280;33272;51.922;7.730;2023-02-11T12:54:13;144669.66;;;8.75;100.00
47530;BME280;33272;51.922;7.730;2023-02-11T12:56:47;144744.34;;;9.05;100.00
47530;BME280;33272;51.922;7.730;2023-02-11T12:59:32;144707.63;;;8.90;100.00
47530;BME280;33272;51.922;7.730;2023-02-11T13:02:12;144721.56;;;8.96;100.00
47530;BME280;33272;51.922;7.730;2023-02-11T13:04:47;144697.50;;;8.86;100.00
47530;BME280;33272;51.922;7.730;2023-02-11T13:07:21;144716.47;;;8.94;100.00
47530;BME280;33272;51.922;7.730;2023-02-11T13:09:56;144732.91;;;9.00;100.00
47530;BME280;33272;51.922;7.730;2023-02-11T13:12:24;144724.06;;;8.97;100.00
47530;BME280;33272;51.922;7.730;2023-02-11T13:15:14;144758.22;;;9.11;100.00
47530;BME280;33272;51.922;7.730;2023-02-11T13:17:50;144765.81;;;9.14;100.00
47530;BME280;33272;51.922;7.730;2023-02-11T13:20:34;144778.50;;;9.19;100.00
47530;BME280;33272;51.922;7.730;2023-02-11T13:23:12;144800.03;;;9.27;100.00
47530;BME280;33272;51.922;7.730;2023-02-11T13:25:49;144802.53;;;9.28;100.00
47530;BME280;33272;51.922;7.730;2023-02-11T13:28:35;144811.41;;;9.32;100.00
47530;BME280;33272;51.922;7.730;2023-02-11T13:31:07;144805.06;;;9.29;100.00
47530;BME280;33272;51.922;7.730;2023-02-11T13:33:38;144749.38;;;9.07;100.00
47530;BME280;33272;51.922;7.730;2023-02-11T13:36:24;144791.19;;;9.24;100.00